Terminal Aerodrome Forecast
Issued by NWS

Home | Current Version | Previous Version | Text Only | Print | Product List | Glossary On
Versions: 1 2 3 4 5 6 7 8 9 10 11 12 13 14
000
FTUS45 KRIW 010500
TAFWRL
TAF
KWRL 010531Z 0106/0206 34006KT 6SM -SHRA BR SCT030 OVC050
     FM011000 34010KT 5SM -SHRA BR SCT012 OVC025
     FM011800 34007KT P6SM VCSH SCT030 BKN050
     FM020000 VRB05KT P6SM SCT050=

USA.gov is the U.S. government's official web portal to all federal, state and local government web resources and services.